CheckWX is a tool to help pilots better visualize weather data.  It is not intended as a substitute for an official pre-flight weather briefing.

17:04:33 UTC

LFSB TAF
Euro Basel-Mulhouse-Freiburg Airport
Bâle/Mulhouse, France
TAF AMD LFSB 181254Z 1812/1912 VRB05KT 9999 FEW055TCU TEMPO 1814/1819 FEW055CB PROB30 TEMPO 1815/1818 VRB10G28KT TS BECMG 1818/1820 CAVOK BECMG 1910/1912 28008KT FEW070CB

Jun-18@
12:00 UTC

Jun-18 @ 12:00 UTC

Jun-18@
18:00 UTC

Jun-18 @ 18:00 UTC

TAF AMD LFSB 181254Z 1812/1912 VRB05KT 9999 FEW055TCU
Wind
  • Variable at 5 KTS
Cloud Levels
  • Few at 5,500' AGL

Jun-18@
14:00 UTC

Jun-18 @ 14:00 UTC

Jun-18@
19:00 UTC

Jun-18 @ 19:00 UTC

TEMPO 1814/1819 FEW055CB

Temporary

Temporary Changes expected for less than half the time period

Cloud Levels
  • Few at 5,500' AGL

Jun-18@
15:00 UTC

Jun-18 @ 15:00 UTC

Jun-18@
18:00 UTC

Jun-18 @ 18:00 UTC

PROB30 TEMPO 1815/1818 VRB10G28KT TS

Temporary - 30% Likelihood

Temporary - 30% Likelihood during this time.

Wind
  • Variable at 10 KTS
  • {Gusting to 28 KTS
Conditions
Thunderstorm

Jun-18@
18:00 UTC

Jun-18 @ 18:00 UTC

Jun-19@
10:00 UTC

Jun-19 @ 10:00 UTC

BECMG 1818/1820 CAVOK

Becoming

Becoming Conditions expected by Tue, Jun 18, 2019 @ 20:00 UTC

Wind
  • Variable at 5 KTS
Conditions
No significant weather
Cloud Levels
  • No significant clouds

Jun-19@
10:00 UTC

Jun-19 @ 10:00 UTC

Jun-19@
12:00 UTC

Jun-19 @ 12:00 UTC

BECMG 1910/1912 28008KT FEW070CB

Becoming

Becoming Conditions expected by Wed, Jun 19, 2019 @ 12:00 UTC

Wind
  • 280° at 8 KTS
Conditions
No significant weather
Cloud Levels
  • Few at 7,000' AGL